Time;durP1;ratioP1;P1;durP2;ratioP2;P2;SDS_P1;SDS_P2;PMS_P1;PMS_P2;Temp;Humidity;BMP_temperature;BMP_pressure;BME280_temperature;BME280_humidity;BME280_pressure;Samples;Min_cycle;Max_cycle;Signal;HPM_P1;HPM_P2
2022/09/10 00:01:34;;;;;;;2.17;1.05;;;;;;;13.95;80.85;98199.78;4239234;27;20055;-71
2022/09/10 00:03:35;;;;;;;1.70;1.05;;;;;;;13.90;81.28;98194.69;4239008;27;20027;-71
2022/09/10 00:05:44;;;;;;;3.00;1.25;;;;;;;13.95;80.81;98199.00;4238910;27;20051;-71
2022/09/10 00:07:44;;;;;;;2.58;1.20;;;;;;;13.95;81.48;98199.00;4239040;27;20072;-71
2022/09/10 00:09:45;;;;;;;3.70;1.10;;;;;;;13.94;81.29;98201.00;4238230;27;20043;-71
2022/09/10 00:11:45;;;;;;;3.67;1.00;;;;;;;13.94;82.66;98203.78;4239046;27;20404;-71
2022/09/10 00:13:45;;;;;;;2.70;1.10;;;;;;;13.93;82.13;98198.63;4239112;27;20038;-71
2022/09/10 00:15:53;;;;;;;3.13;1.13;;;;;;;13.94;81.73;98192.66;4238936;27;20045;-71
2022/09/10 00:17:53;;;;;;;2.13;1.10;;;;;;;13.96;82.28;98195.03;4237808;27;20050;-71
2022/09/10 00:19:54;;;;;;;1.95;1.15;;;;;;;13.93;82.85;98201.41;4237696;27;20035;-71
2022/09/10 00:21:54;;;;;;;3.40;1.17;;;;;;;14.01;82.35;98200.97;4238741;27;20069;-71
2022/09/10 00:23:55;;;;;;;1.33;1.15;;;;;;;14.01;82.57;98203.75;4239094;27;20039;-71
2022/09/10 00:25:56;;;;;;;2.20;0.82;;;;;;;14.05;81.98;98212.84;4238606;27;20043;-71
2022/09/10 00:27:59;;;;;;;2.10;1.10;;;;;;;14.07;82.57;98209.66;4237661;27;20092;-71
2022/09/10 00:30:00;;;;;;;1.90;1.10;;;;;;;14.03;82.90;98203.31;4237788;27;20118;-71
2022/09/10 00:32:03;;;;;;;2.40;1.40;;;;;;;14.05;82.62;98210.06;4238530;27;20047;-71
2022/09/10 00:34:04;;;;;;;2.72;1.00;;;;;;;14.05;82.53;98203.69;4238218;27;20023;-71
2022/09/10 00:36:14;;;;;;;0.95;0.82;;;;;;;14.02;82.91;98204.53;4239025;27;20047;-72
2022/09/10 00:38:17;;;;;;;1.85;1.13;;;;;;;13.98;83.16;98209.31;4238213;27;20039;-71
2022/09/10 00:40:18;;;;;;;2.45;1.25;;;;;;;13.97;82.86;98202.16;4237826;27;20023;-72
2022/09/10 00:42:18;;;;;;;1.92;1.02;;;;;;;14.00;82.46;98204.16;4238746;27;20045;-72
2022/09/10 00:44:40;;;;;;;1.00;0.82;;;;;;;14.05;81.94;98212.03;4239121;27;20057;-72
2022/09/10 00:46:44;;;;;;;1.98;1.15;;;;;;;14.05;82.02;98207.28;4238457;27;20051;-71
2022/09/10 00:48:45;;;;;;;1.25;0.90;;;;;;;14.03;81.87;98208.88;4236921;27;20138;-71
2022/09/10 00:50:47;;;;;;;1.35;1.25;;;;;;;14.10;81.57;98202.50;4238524;27;20136;-71
2022/09/10 00:52:50;;;;;;;2.88;1.35;;;;;;;14.04;81.52;98207.69;4237871;27;20081;-71
2022/09/10 00:54:50;;;;;;;1.80;0.98;;;;;;;14.03;81.93;98208.88;4238222;27;20047;-71
2022/09/10 00:56:53;;;;;;;1.70;0.90;;;;;;;14.00;81.64;98206.94;4238303;27;20084;-71
2022/09/10 00:58:55;;;;;;;1.85;0.77;;;;;;;14.00;81.65;98206.94;4237674;27;20553;-71
2022/09/10 01:01:00;;;;;;;1.85;0.90;;;;;;;14.02;82.08;98202.53;4238764;27;20337;-71
2022/09/10 01:03:01;;;;;;;1.20;0.90;;;;;;;14.01;82.30;98203.75;4238431;27;20304;-71
2022/09/10 01:05:04;;;;;;;3.92;0.80;;;;;;;13.98;81.76;98203.75;4237977;27;20277;-71
2022/09/10 01:07:08;;;;;;;1.15;0.90;;;;;;;13.96;82.69;98206.16;4238020;27;20732;-71
2022/09/10 01:09:09;;;;;;;3.40;1.00;;;;;;;13.96;82.62;98204.16;4237574;27;20282;-71
2022/09/10 01:11:12;;;;;;;3.33;0.90;;;;;;;13.95;83.24;98207.34;4238277;27;20047;-71
2022/09/10 01:13:24;;;;;;;3.08;1.00;;;;;;;13.96;82.87;98203.38;4238124;27;20047;-71
2022/09/10 01:15:32;;;;;;;2.33;1.00;;;;;;;13.99;82.47;98203.38;4237828;27;20047;-71
2022/09/10 01:17:56;;;;;;;2.05;0.88;;;;;;;14.04;82.64;98208.47;4237559;27;20776;-71
2022/09/10 01:20:15;;;;;;;2.05;0.93;;;;;;;13.99;82.85;98205.34;4237926;27;20043;-71
2022/09/10 01:22:33;;;;;;;3.47;1.10;;;;;;;13.92;82.97;98200.63;4237491;27;20091;-71
2022/09/10 01:24:55;;;;;;;2.75;1.00;;;;;;;13.86;83.32;98190.31;4237816;27;20304;-71
2022/09/10 01:27:19;;;;;;;2.97;1.00;;;;;;;13.82;83.38;98212.59;4236781;27;20046;-71
2022/09/10 01:29:34;;;;;;;1.98;1.10;;;;;;;13.83;83.46;98214.19;4236876;27;20506;-71
2022/09/10 01:31:54;;;;;;;2.17;1.38;;;;;;;13.81;84.03;98216.56;4237383;27;20043;-71
2022/09/10 01:34:01;;;;;;;2.40;1.10;;;;;;;13.81;83.50;98213.78;4236859;27;20039;-71
2022/09/10 01:36:12;;;;;;;1.90;0.90;;;;;;;13.84;83.93;98226.88;4238331;27;20494;-71
2022/09/10 01:38:18;;;;;;;2.83;0.95;;;;;;;13.84;83.72;98221.31;4237576;27;20475;-71
2022/09/10 01:40:27;;;;;;;1.13;0.80;;;;;;;13.82;83.97;98209.81;4237742;27;20030;-71
2022/09/10 01:42:28;;;;;;;1.42;0.98;;;;;;;13.84;83.76;98210.22;4237960;27;20074;-71
2022/09/10 01:44:39;;;;;;;2.13;0.93;;;;;;;13.86;83.49;98212.56;4237273;27;20375;-71
2022/09/10 01:46:53;;;;;;;1.73;1.00;;;;;;;13.86;82.90;98213.38;4236385;27;20046;-71
2022/09/10 01:49:01;;;;;;;2.15;1.10;;;;;;;13.88;83.14;98219.31;4236708;27;20047;-71
2022/09/10 01:51:07;;;;;;;1.52;0.77;;;;;;;13.88;82.88;98216.53;4236943;27;20050;-71
2022/09/10 01:53:29;;;;;;;3.67;0.80;;;;;;;13.86;82.92;98216.16;4237083;27;20057;-71
2022/09/10 01:55:35;;;;;;;2.38;0.98;;;;;;;13.84;83.29;98220.53;4237486;27;20039;-71
2022/09/10 01:58:20;;;;;;;2.35;1.05;;;;;;;13.83;83.37;98225.31;4237460;27;20055;-71
2022/09/10 02:00:23;;;;;;;2.47;1.00;;;;;;;13.83;83.47;98230.09;4156866;27;20473;-71
2022/09/10 02:02:29;;;;;;;1.77;1.00;;;;;;;13.83;83.92;98228.09;4237087;27;20491;-71
2022/09/10 02:04:30;;;;;;;1.58;0.80;;;;;;;13.89;83.24;98226.44;4237053;27;20081;-71
2022/09/10 02:06:36;;;;;;;4.53;1.10;;;;;;;13.92;82.85;98230.44;4237106;27;20302;-71
2022/09/10 02:08:39;;;;;;;2.75;1.20;;;;;;;13.96;83.03;98231.19;4236557;27;20542;-71
2022/09/10 02:10:52;;;;;;;1.77;0.88;;;;;;;13.99;82.84;98227.59;4237702;27;20421;-71
2022/09/10 02:12:53;;;;;;;;;;;;;;;14.01;82.74;98223.22;4237397;27;20078;-71
2022/09/10 02:14:55;;;;;;;1.15;0.85;;;;;;;14.08;82.83;98230.72;4236646;27;19915;-71
2022/09/10 02:16:58;;;;;;;1.33;0.88;;;;;;;14.10;82.43;98224.75;4237164;27;20371;-71
2022/09/10 02:18:59;;;;;;;2.13;1.00;;;;;;;14.11;82.43;98218.78;4236575;27;20473;-71
2022/09/10 02:21:02;;;;;;;1.65;0.80;;;;;;;14.12;82.65;98219.56;4237027;27;20039;-71
2022/09/10 02:23:04;;;;;;;1.17;0.80;;;;;;;14.17;81.86;98221.91;4236972;27;20693;-71
2022/09/10 02:25:04;;;;;;;1.67;1.10;;;;;;;14.18;81.80;98229.06;4237307;27;20047;-71
2022/09/10 02:27:05;;;;;;;1.70;0.85;;;;;;;14.22;81.46;98230.59;4236767;27;20550;-71
2022/09/10 02:29:06;;;;;;;2.35;0.90;;;;;;;14.23;81.25;98231.41;4236343;27;20047;-71
2022/09/10 02:31:07;;;;;;;3.88;1.00;;;;;;;14.25;81.09;98232.59;4236820;27;20070;-71
2022/09/10 02:33:07;;;;;;;1.17;0.93;;;;;;;14.25;81.70;98234.59;4237040;27;20046;-71
2022/09/10 02:35:08;;;;;;;2.30;0.95;;;;;;;14.26;81.72;98238.94;4236405;27;21160;-71
2022/09/10 02:37:08;;;;;;;1.48;1.10;;;;;;;14.22;81.73;98235.38;4237206;27;20880;-71
2022/09/10 02:39:08;;;;;;;1.13;1.00;;;;;;;14.14;82.20;98240.19;4236421;27;20371;-71
2022/09/10 02:41:09;;;;;;;2.05;0.90;;;;;;;14.11;82.49;98240.22;4217929;28;20110;-71
2022/09/10 02:43:09;;;;;;;2.03;0.90;;;;;;;14.07;82.04;98240.28;4236336;27;20088;-71
2022/09/10 02:45:09;;;;;;;1.80;1.10;;;;;;;14.08;82.15;98246.63;4236467;27;20417;-71
2022/09/10 02:47:10;;;;;;;2.15;1.00;;;;;;;14.07;82.02;98245.84;4236393;27;20075;-71
2022/09/10 02:49:10;;;;;;;1.23;1.00;;;;;;;14.07;82.42;98240.28;4236043;27;20039;-71
2022/09/10 02:51:11;;;;;;;1.67;0.85;;;;;;;14.07;82.59;98245.84;4218332;28;20101;-71
2022/09/10 02:53:12;;;;;;;2.22;1.00;;;;;;;14.06;82.46;98244.22;4236449;27;20190;-71
2022/09/10 02:55:12;;;;;;;2.22;0.90;;;;;;;14.08;81.88;98243.84;4236167;27;20084;-71
2022/09/10 02:57:12;;;;;;;1.95;1.00;;;;;;;14.10;81.88;98241.44;4236891;27;20618;-71
2022/09/10 02:59:13;;;;;;;1.20;0.90;;;;;;;14.09;81.88;98234.28;4235889;27;20130;-71
2022/09/10 03:01:17;;;;;;;2.83;0.95;;;;;;;14.08;82.20;98241.06;4236363;27;20315;-71
2022/09/10 03:03:18;;;;;;;2.88;1.10;;;;;;;14.08;82.33;98238.28;4236265;28;20231;-71
2022/09/10 03:05:18;;;;;;;8.07;1.20;;;;;;;14.05;82.25;98226.75;4236557;28;20051;-71
2022/09/10 03:07:19;;;;;;;4.07;0.90;;;;;;;14.06;82.63;98238.66;4236673;28;20040;-71
2022/09/10 03:09:19;;;;;;;1.80;0.90;;;;;;;14.00;82.92;98227.19;4235839;28;20083;-71
2022/09/10 03:11:22;;;;;;;1.75;0.98;;;;;;;14.03;83.01;98231.13;4236651;28;20374;-71
2022/09/10 03:13:23;;;;;;;2.10;0.77;;;;;;;14.00;83.47;98235.53;4236337;28;20477;-71
2022/09/10 03:15:24;;;;;;;3.33;0.80;;;;;;;13.99;83.42;98225.63;4236856;27;20035;-71
2022/09/10 03:17:25;;;;;;;0.95;0.80;;;;;;;14.01;83.00;98226.00;4239955;27;20058;-71
2022/09/10 03:19:25;;;;;;;1.25;0.90;;;;;;;14.02;82.76;98224.78;4239559;27;20043;-71
2022/09/10 03:21:25;;;;;;;2.58;0.85;;;;;;;14.02;83.02;98226.78;4240143;27;20035;-71
2022/09/10 03:23:27;;;;;;;1.00;0.88;;;;;;;14.05;82.94;98231.53;4239568;27;20039;-71
2022/09/10 03:25:27;;;;;;;2.95;1.30;;;;;;;14.02;83.54;98235.13;4239778;27;20455;-71
2022/09/10 03:27:27;;;;;;;2.55;0.98;;;;;;;13.96;83.38;98231.97;4239887;27;20051;-71
2022/09/10 03:29:29;;;;;;;1.65;0.95;;;;;;;13.93;83.67;98229.22;4238306;27;20447;-71
2022/09/10 03:31:29;;;;;;;1.55;1.10;;;;;;;13.87;84.01;98225.28;4239913;27;20390;-71
2022/09/10 03:33:30;;;;;;;0.75;0.75;;;;;;;13.85;83.39;98222.91;4239877;27;20047;-71
2022/09/10 03:35:31;;;;;;;1.58;0.80;;;;;;;13.80;83.29;98212.19;4239478;27;20408;-71
2022/09/10 03:37:31;;;;;;;1.55;1.05;;;;;;;13.78;83.51;98222.94;4240367;27;20050;-71
2022/09/10 03:39:32;;;;;;;1.20;0.80;;;;;;;13.79;83.65;98218.97;4238665;27;20050;-71
2022/09/10 03:41:32;;;;;;;1.52;0.90;;;;;;;13.80;83.25;98216.97;4239805;27;20047;-71
2022/09/10 03:43:32;;;;;;;1.02;0.80;;;;;;;13.80;83.21;98222.53;4239167;27;20201;-71
2022/09/10 03:45:33;;;;;;;4.60;1.13;;;;;;;13.78;83.12;98212.59;4239528;27;20055;-71
2022/09/10 03:47:36;;;;;;;1.13;1.02;;;;;;;13.78;83.77;98222.94;4239650;27;20055;-71
2022/09/10 03:49:36;;;;;;;1.38;1.10;;;;;;;13.71;84.09;98228.53;4239283;27;20096;-71
2022/09/10 03:51:37;;;;;;;3.58;1.20;;;;;;;13.67;84.73;98225.00;4239404;27;20081;-71
2022/09/10 03:53:37;;;;;;;1.25;0.90;;;;;;;13.62;84.89;98226.19;4239226;27;20067;-71
2022/09/10 03:55:38;;;;;;;1.77;0.93;;;;;;;13.62;84.49;98222.63;4239139;27;20356;-71
2022/09/10 03:57:40;;;;;;;2.65;1.02;;;;;;;13.62;84.46;98217.06;4238790;27;20209;-71
2022/09/10 03:59:40;;;;;;;1.92;0.95;;;;;;;13.68;83.98;98219.03;4238745;27;20399;-71
2022/09/10 04:01:41;;;;;;;3.63;2.03;;;;;;;13.66;84.06;98217.84;4239177;27;20446;-71
2022/09/10 04:03:42;;;;;;;2.30;1.10;;;;;;;13.67;84.26;98220.22;4239425;27;20090;-71
2022/09/10 04:05:42;;;;;;;1.75;1.00;;;;;;;13.69;84.37;98222.59;4239077;27;20377;-71
2022/09/10 04:07:43;;;;;;;3.60;1.10;;;;;;;13.68;85.14;98219.03;4238485;27;20045;-71
2022/09/10 04:09:43;;;;;;;2.90;0.93;;;;;;;13.68;84.74;98221.81;4238988;27;20048;-71
2022/09/10 04:11:44;;;;;;;1.60;0.90;;;;;;;13.69;84.80;98230.94;4238597;27;20054;-71
2022/09/10 04:13:47;;;;;;;2.78;1.30;;;;;;;13.69;84.40;98217.81;4238781;27;20035;-71
2022/09/10 04:15:48;;;;;;;2.22;1.10;;;;;;;13.73;84.52;98215.00;4238803;27;20050;-71
2022/09/10 04:17:51;;;;;;;1.40;1.10;;;;;;;13.76;83.96;98220.56;4239016;27;20046;-71
2022/09/10 04:19:51;;;;;;;1.60;1.00;;;;;;;13.81;83.85;98224.13;4238183;27;20039;-71
2022/09/10 04:21:52;;;;;;;1.95;1.00;;;;;;;13.80;83.78;98222.53;4238744;27;20039;-71
2022/09/10 04:23:54;;;;;;;2.00;1.13;;;;;;;13.82;83.75;98229.28;4238910;27;20455;-71
2022/09/10 04:25:55;;;;;;;1.77;1.23;;;;;;;13.85;83.71;98227.69;4237441;27;20467;-71
2022/09/10 04:27:55;;;;;;;1.65;1.10;;;;;;;13.81;83.92;98224.13;4237350;27;20471;-71
2022/09/10 04:29:56;;;;;;;1.27;0.80;;;;;;;13.76;84.17;98228.13;4238187;27;20071;-71
2022/09/10 04:31:57;;;;;;;3.67;1.33;;;;;;;13.74;84.23;98227.75;4239249;27;20475;-71
2022/09/10 04:34:00;;;;;;;6.78;1.40;;;;;;;13.67;84.94;98228.56;4238420;27;20124;-71
2022/09/10 04:36:02;;;;;;;4.30;1.30;;;;;;;13.57;85.62;98239.72;4238276;27;20382;-71
2022/09/10 04:38:02;;;;;;;6.57;1.45;;;;;;;13.49;85.63;98228.66;4237804;27;20023;-71
2022/09/10 04:40:03;;;;;;;7.95;1.60;;;;;;;13.39;86.78;98225.91;4238051;27;20092;-71
2022/09/10 04:42:05;;;;;;;3.38;1.25;;;;;;;13.35;86.84;98227.91;4238210;27;20393;-72
2022/09/10 04:44:05;;;;;;;3.60;1.50;;;;;;;13.30;87.39;98228.31;4238317;27;20110;-71
2022/09/10 04:46:06;;;;;;;4.85;1.45;;;;;;;13.26;87.42;98224.78;4238606;27;20472;-71
2022/09/10 04:48:06;;;;;;;3.92;1.33;;;;;;;13.23;87.87;98220.00;4238815;27;20374;-71
2022/09/10 04:50:07;;;;;;;5.80;1.25;;;;;;;13.21;88.42;98229.53;4238026;27;20292;-71
2022/09/10 04:52:09;;;;;;;2.42;1.33;;;;;;;13.19;88.47;98226.38;4238119;27;20229;-71
2022/09/10 04:54:12;;;;;;;2.58;1.50;;;;;;;13.19;88.71;98231.09;4238787;27;20027;-72
2022/09/10 04:56:13;;;;;;;4.03;1.45;;;;;;;13.20;88.60;98230.72;4238212;27;20036;-71
2022/09/10 04:58:13;;;;;;;3.40;1.40;;;;;;;13.20;88.33;98235.50;4238078;27;20132;-71
2022/09/10 05:00:14;;;;;;;2.20;1.30;;;;;;;13.23;88.74;98234.69;4237994;27;20050;-71
2022/09/10 05:02:14;;;;;;;2.15;1.40;;;;;;;13.22;89.21;98230.31;4238509;27;20492;-71
2022/09/10 05:04:15;;;;;;;2.35;1.60;;;;;;;13.26;89.73;98235.88;4237949;27;20072;-71
2022/09/10 05:06:16;;;;;;;3.17;1.10;;;;;;;13.24;89.90;98224.34;4238131;27;20028;-71
2022/09/10 05:08:16;;;;;;;2.10;1.40;;;;;;;13.21;89.99;98223.97;4238792;27;20034;-71
2022/09/10 05:10:17;;;;;;;3.58;1.40;;;;;;;13.20;90.14;98222.38;4237602;27;20474;-71
2022/09/10 05:12:18;;;;;;;2.33;1.60;;;;;;;13.21;90.31;98228.75;4238207;27;20447;-71
2022/09/10 05:14:18;;;;;;;3.00;1.48;;;;;;;13.19;90.25;98223.59;4238159;27;20084;-71
2022/09/10 05:16:20;;;;;;;3.20;1.33;;;;;;;13.18;90.09;98219.19;4238438;27;20306;-71
2022/09/10 05:18:20;;;;;;;1.80;1.30;;;;;;;13.22;89.45;98224.75;4237595;27;20051;-71
2022/09/10 05:20:20;;;;;;;3.38;1.40;;;;;;;13.25;88.65;98223.97;4237427;27;20498;-71
2022/09/10 05:22:21;;;;;;;2.88;1.30;;;;;;;13.27;88.48;98221.59;4238310;27;20137;-71
2022/09/10 05:24:21;;;;;;;1.20;1.05;;;;;;;13.30;88.63;98219.97;4237592;27;20124;-71
2022/09/10 05:26:22;;;;;;;2.63;1.48;;;;;;;13.34;88.10;98218.00;4237906;27;20035;-72
2022/09/10 05:28:23;;;;;;;5.75;1.83;;;;;;;13.43;87.61;98227.47;4237143;27;20071;-71
2022/09/10 05:30:23;;;;;;;3.33;1.60;;;;;;;13.48;88.35;98227.03;4237578;27;20043;-71
2022/09/10 05:32:24;;;;;;;4.28;1.17;;;;;;;13.52;87.59;98224.25;4237783;27;20526;-71
2022/09/10 05:34:25;;;;;;;4.22;1.30;;;;;;;13.59;87.11;98231.78;4237874;27;20074;-71
2022/09/10 05:36:32;;;;;;;3.47;1.67;;;;;;;13.64;87.02;98220.22;4238445;27;20062;-71
2022/09/10 05:38:32;;;;;;;3.63;1.63;;;;;;;13.66;88.04;98226.19;4236747;27;20166;-71
2022/09/10 05:40:34;;;;;;;1.70;1.20;;;;;;;13.67;87.87;98223.00;4237210;27;20059;-71
2022/09/10 05:42:34;;;;;;;2.92;1.55;;;;;;;13.66;87.99;98226.19;4237572;27;20336;-71
2022/09/10 05:44:34;;;;;;;2.55;1.40;;;;;;;13.66;88.11;98227.00;4237098;27;20046;-71
2022/09/10 05:46:35;;;;;;;5.13;1.80;;;;;;;13.67;88.35;98228.56;4237919;27;20054;-71
2022/09/10 05:48:36;;;;;;;5.68;1.90;;;;;;;13.69;87.82;98223.38;4236971;27;20043;-71
2022/09/10 05:50:37;;;;;;;3.75;1.48;;;;;;;13.71;87.82;98222.97;4237175;27;20142;-72
2022/09/10 05:52:37;;;;;;;5.57;1.67;;;;;;;13.73;88.54;98226.13;4237129;27;20395;-72
2022/09/10 05:54:37;;;;;;;1.88;1.35;;;;;;;13.73;88.50;98224.16;4232453;27;20103;-71
2022/09/10 05:56:38;;;;;;;2.97;2.25;;;;;;;13.77;88.76;98232.47;4233888;27;20043;-71
2022/09/10 05:58:39;;;;;;;4.28;1.48;;;;;;;13.77;89.49;98229.69;4237017;27;20065;-71
2022/09/10 06:00:41;;;;;;;3.33;1.60;;;;;;;13.75;89.17;98232.91;4237229;27;20422;-71
2022/09/10 06:02:44;;;;;;;3.58;1.75;;;;;;;13.75;89.20;98232.91;4234002;27;20039;-71
2022/09/10 06:04:44;;;;;;;5.28;1.35;;;;;;;13.77;89.63;98236.06;4232083;27;20039;-71
2022/09/10 06:06:44;;;;;;;4.40;1.63;;;;;;;13.76;89.93;98237.25;4236559;27;20050;-71
2022/09/10 06:08:50;;;;;;;5.30;1.52;;;;;;;13.79;90.07;98232.88;4235134;27;20043;-71
2022/09/10 06:10:59;;;;;;;4.82;1.83;;;;;;;13.83;89.83;98230.09;4236203;27;20046;-71
2022/09/10 06:13:00;;;;;;;3.88;1.58;;;;;;;13.87;88.57;98236.41;4235357;27;20590;-71
2022/09/10 06:15:02;;;;;;;2.38;1.25;;;;;;;13.93;87.83;98241.13;4236054;27;20074;-71
2022/09/10 06:17:03;;;;;;;2.47;1.50;;;;;;;13.98;86.69;98235.16;4234143;27;20621;-71
2022/09/10 06:19:03;;;;;;;2.22;1.40;;;;;;;14.05;85.86;98239.88;4235890;27;20134;-71
2022/09/10 06:21:15;;;;;;;4.15;1.30;;;;;;;14.12;84.64;98239.03;4235485;27;20079;-71
2022/09/10 06:23:16;;;;;;;2.78;1.40;;;;;;;14.19;85.19;98239.78;4235626;27;20693;-71
2022/09/10 06:25:17;;;;;;;2.58;1.20;;;;;;;14.25;84.49;98238.16;4235867;27;20125;-71
2022/09/10 06:27:17;;;;;;;3.92;1.60;;;;;;;14.38;84.18;98246.00;4235934;27;20031;-71
2022/09/10 06:29:18;;;;;;;2.58;1.60;;;;;;;14.48;83.79;98245.97;4235043;27;20146;-71
2022/09/10 06:31:18;;;;;;;3.00;1.80;;;;;;;14.54;84.54;98241.53;4233388;27;20047;-71
2022/09/10 06:33:19;;;;;;;1.85;1.40;;;;;;;14.59;84.55;98237.53;4235426;27;20047;-71
2022/09/10 06:35:20;;;;;;;1.98;1.50;;;;;;;14.59;84.68;98231.97;4235173;27;20096;-71
2022/09/10 06:37:21;;;;;;;4.32;1.63;;;;;;;14.63;84.66;98240.28;4236274;27;20043;-71
2022/09/10 06:39:21;;;;;;;1.88;1.30;;;;;;;14.64;84.41;98241.84;4235094;27;20046;-71
2022/09/10 06:41:22;;;;;;;2.47;1.50;;;;;;;14.67;83.88;98243.84;4234852;27;20043;-71
2022/09/10 06:43:23;;;;;;;2.92;1.60;;;;;;;14.70;84.44;98243.00;4235761;27;20411;-71
2022/09/10 06:45:23;;;;;;;2.58;1.60;;;;;;;14.77;84.29;98240.16;4234148;27;20480;-71
2022/09/10 06:47:23;;;;;;;3.53;1.75;;;;;;;14.86;84.02;98246.81;4235941;27;20039;-71
2022/09/10 06:49:24;;;;;;;1.70;1.60;;;;;;;14.97;83.29;98238.34;4235987;27;20516;-71
2022/09/10 06:51:24;;;;;;;4.38;1.92;;;;;;;15.02;82.58;98239.91;4235406;27;20043;-71
2022/09/10 06:53:27;;;;;;;3.38;1.58;;;;;;;15.03;82.83;98244.28;4236454;27;20622;-71
2022/09/10 06:55:27;;;;;;;5.30;1.70;;;;;;;15.07;82.36;98245.03;4235376;27;20483;-71
2022/09/10 06:57:28;;;;;;;3.00;1.85;;;;;;;15.14;82.27;98244.94;4236294;27;20054;-71
2022/09/10 06:59:28;;;;;;;2.50;2.00;;;;;;;15.25;82.14;98250.44;4235727;27;20040;-71
2022/09/10 07:01:29;;;;;;;3.10;1.60;;;;;;;15.33;79.68;98235.22;4235659;27;20417;-71
2022/09/10 07:03:29;;;;;;;3.78;1.55;;;;;;;15.43;79.46;98235.06;4234522;28;20382;-71
2022/09/10 07:05:32;;;;;;;1.50;1.40;;;;;;;15.57;79.38;98247.28;4235904;28;20396;-71
2022/09/10 07:07:33;;;;;;;1.42;1.30;;;;;;;15.65;78.29;98234.84;4236465;28;20067;-71
2022/09/10 07:09:33;;;;;;;1.85;1.40;;;;;;;15.73;77.39;98241.94;4234977;28;20069;-71
2022/09/10 07:11:33;;;;;;;2.45;1.25;;;;;;;15.80;76.71;98249.38;4236672;28;20428;-71
2022/09/10 07:13:34;;;;;;;2.17;1.50;;;;;;;15.89;76.66;98244.13;4235224;28;20655;-72
2022/09/10 07:15:35;;;;;;;3.42;1.50;;;;;;;15.92;76.34;98241.25;4235427;28;20371;-71
2022/09/10 07:17:35;;;;;;;1.98;1.40;;;;;;;15.96;76.15;98249.56;4236445;28;20419;-71
2022/09/10 07:19:36;;;;;;;4.93;1.73;;;;;;;15.96;75.97;98239.19;4235445;28;20050;-71
2022/09/10 07:21:37;;;;;;;1.98;1.45;;;;;;;15.99;75.92;98252.31;4236100;28;20100;-71
2022/09/10 07:23:40;;;;;;;3.85;1.60;;;;;;;16.06;75.59;98247.88;4236263;28;20479;-71
2022/09/10 07:25:41;;;;;;;4.45;1.45;;;;;;;16.08;74.65;98243.44;4235947;28;20043;-71
2022/09/10 07:27:41;;;;;;;2.75;1.25;;;;;;;16.15;74.92;98251.72;4235780;28;20036;-71
2022/09/10 07:29:41;;;;;;;2.33;1.35;;;;;;;16.27;74.38;98245.53;4236084;28;20047;-71
2022/09/10 07:31:42;;;;;;;7.38;1.88;;;;;;;16.39;73.84;98244.19;4236343;28;20103;-71
2022/09/10 07:33:43;;;;;;;2.28;1.67;;;;;;;16.44;73.62;98246.47;4235980;28;20562;-71
2022/09/10 07:35:43;;;;;;;2.72;1.70;;;;;;;16.57;73.34;98247.47;4236045;28;20047;-71
2022/09/10 07:37:44;;;;;;;1.83;1.17;;;;;;;16.73;72.99;98258.03;4233327;27;20650;-71
2022/09/10 07:39:44;;;;;;;1.88;1.30;;;;;;;16.84;70.33;98260.63;4235544;28;20402;-71
2022/09/10 07:41:45;;;;;;;2.55;1.17;;;;;;;16.87;69.77;98259.75;4235612;28;20094;-71
2022/09/10 07:43:45;;;;;;;3.20;1.40;;;;;;;16.83;69.38;98253.47;4236097;28;20043;-71
2022/09/10 07:45:47;;;;;;;1.50;1.20;;;;;;;16.78;69.78;98262.31;4234579;28;20444;-71
2022/09/10 07:47:48;;;;;;;1.63;1.20;;;;;;;16.76;69.76;98256.38;4236285;28;20063;-72
2022/09/10 07:49:51;;;;;;;1.67;1.35;;;;;;;16.74;70.94;98258.81;4233834;28;20066;-71
2022/09/10 07:51:52;;;;;;;;;;;;;;;16.71;70.13;98263.22;4236514;28;20436;-71
2022/09/10 07:53:55;;;;;;;1.42;1.33;;;;;;;16.72;69.46;98264.03;4217709;28;20010;-71
2022/09/10 07:56:03;;;;;;;;;;;;;;;16.70;70.25;98266.44;4235238;28;20141;-71
2022/09/10 07:58:04;;;;;;;1.30;1.20;;;;;;;16.71;69.52;98262.44;4235298;28;20396;-71
2022/09/10 08:00:10;;;;;;;3.17;1.23;;;;;;;16.71;68.99;98266.00;4235433;28;20046;-71
2022/09/10 08:02:14;;;;;;;3.15;1.98;;;;;;;16.69;68.87;98256.47;4237349;27;20037;-71
2022/09/10 08:04:14;;;;;;;1.73;1.00;;;;;;;16.72;69.76;98272.41;4238415;27;20420;-71
2022/09/10 08:06:15;;;;;;;1.55;1.10;;;;;;;16.69;68.99;98270.44;4239165;27;20027;-71
2022/09/10 08:08:16;;;;;;;2.45;1.05;;;;;;;16.66;69.40;98271.28;4237699;27;20059;-71
2022/09/10 08:10:16;;;;;;;4.03;1.50;;;;;;;16.60;69.16;98265.38;4238611;27;20424;-72
2022/09/10 08:12:16;;;;;;;1.83;1.20;;;;;;;16.58;70.24;98274.19;4239692;27;20109;-71
2022/09/10 08:14:16;;;;;;;2.53;1.48;;;;;;;16.54;70.22;98267.06;4238877;27;20061;-71
2022/09/10 08:16:19;;;;;;;2.38;1.30;;;;;;;16.54;71.80;98275.44;4238479;27;20582;-71
2022/09/10 08:18:20;;;;;;;8.50;1.70;;;;;;;16.54;71.90;98279.03;4238569;27;20433;-72
2022/09/10 08:20:24;;;;;;;2.42;1.40;;;;;;;16.52;71.84;98278.66;4239016;27;20039;-72
2022/09/10 08:22:24;;;;;;;2.45;1.40;;;;;;;16.49;71.53;98276.72;4238742;27;20047;-72
2022/09/10 08:24:25;;;;;;;2.20;1.20;;;;;;;16.48;70.96;98291.91;4236778;27;20043;-71
2022/09/10 08:26:25;;;;;;;3.25;1.35;;;;;;;16.47;71.48;98279.16;4237387;27;20359;-71
2022/09/10 08:28:26;;;;;;;3.15;1.85;;;;;;;16.41;72.22;98280.03;4234761;27;20461;-71
2022/09/10 08:30:26;;;;;;;1.55;1.45;;;;;;;16.38;72.49;98281.66;4238089;27;20611;-71
2022/09/10 08:32:27;;;;;;;2.25;1.23;;;;;;;16.40;71.51;98284.06;4238348;27;20475;-71
2022/09/10 08:34:28;;;;;;;2.75;1.58;;;;;;;16.39;71.96;98285.28;4233526;27;20039;-71
2022/09/10 08:36:28;;;;;;;2.40;1.60;;;;;;;16.48;71.00;98291.91;4237985;27;20479;-71
2022/09/10 08:38:34;;;;;;;4.55;1.33;;;;;;;16.48;70.83;98283.53;4237481;27;20050;-72
2022/09/10 08:40:41;;;;;;;1.20;1.10;;;;;;;16.51;70.15;98287.47;4237510;27;20703;-72
2022/09/10 08:42:48;;;;;;;5.43;1.30;;;;;;;16.54;70.96;98286.59;4237886;27;20198;-72
2022/09/10 08:44:54;;;;;;;3.08;1.50;;;;;;;16.56;71.06;98287.00;4237743;27;20067;-71
2022/09/10 08:47:05;;;;;;;2.65;1.55;;;;;;;16.58;71.96;98293.72;4238258;27;20084;-71
2022/09/10 08:49:37;;;;;;;3.58;1.58;;;;;;;16.61;72.96;98296.88;4233234;27;20424;-71
2022/09/10 08:51:47;;;;;;;3.47;1.52;;;;;;;16.58;72.87;98285.34;4217003;27;20059;-72
2022/09/10 08:53:58;;;;;;;2.75;1.50;;;;;;;16.54;72.87;98290.19;4234658;27;20039;-71
2022/09/10 08:56:04;;;;;;;3.38;1.60;;;;;;;16.51;72.20;98291.03;4238140;27;20035;-71
2022/09/10 08:58:38;;;;;;;1.65;1.40;;;;;;;16.52;72.58;98295.41;4236937;27;20599;-71
2022/09/10 09:00:43;;;;;;;1.85;1.55;;;;;;;16.50;72.06;98289.47;4237868;27;20437;-71
2022/09/10 09:03:13;;;;;;;2.17;1.40;;;;;;;16.54;72.39;98295.00;4235584;27;20043;-71
2022/09/10 09:05:16;;;;;;;3.75;1.35;;;;;;;16.57;72.00;98294.94;4237797;27;20051;-71
2022/09/10 09:07:19;;;;;;;1.48;1.33;;;;;;;16.59;71.20;98294.53;4234195;27;20054;-71
2022/09/10 09:09:20;;;;;;;;;;;;;;;16.61;71.44;98300.47;4234750;27;20062;-71
2022/09/10 09:11:48;;;;;;;2.30;1.52;;;;;;;16.61;71.23;98289.28;4238041;27;20392;-71
2022/09/10 09:14:00;;;;;;;2.70;1.52;;;;;;;16.66;71.43;98294.41;4236699;27;20047;-71
2022/09/10 09:16:15;;;;;;;2.43;1.40;;;;;;;16.70;71.74;98297.97;4238042;27;20031;-71
2022/09/10 09:18:33;;;;;;;1.77;1.40;;;;;;;16.73;70.55;98308.31;4237710;27;20759;-71
2022/09/10 09:20:45;;;;;;;1.63;1.52;;;;;;;16.73;70.42;98308.31;4236815;27;20055;-71
2022/09/10 09:22:54;;;;;;;3.72;1.77;;;;;;;16.75;70.66;98300.28;4237935;27;20350;-71
2022/09/10 09:25:06;;;;;;;1.63;1.30;;;;;;;16.74;70.18;98293.13;4237892;27;20070;-71
2022/09/10 09:27:15;;;;;;;2.35;1.20;;;;;;;16.76;70.18;98293.47;4236514;27;20100;-71
2022/09/10 09:29:16;;;;;;;2.67;1.50;;;;;;;16.78;70.55;98290.25;4236566;27;20554;-71
2022/09/10 09:31:36;;;;;;;3.15;1.48;;;;;;;16.81;71.00;98298.59;4237546;27;20416;-71
2022/09/10 09:33:37;;;;;;;3.33;1.65;;;;;;;16.89;70.50;98306.88;4237243;27;20047;-71
2022/09/10 09:35:46;;;;;;;5.75;1.45;;;;;;;16.95;70.22;98303.13;4237200;27;20047;-71
2022/09/10 09:37:47;;;;;;;2.03;1.40;;;;;;;17.07;70.75;98304.56;4237939;27;20047;-71
2022/09/10 09:40:03;;;;;;;4.28;1.30;;;;;;;17.20;69.80;98308.28;4237249;27;20042;-71
2022/09/10 09:42:13;;;;;;;2.65;1.48;;;;;;;17.32;69.04;98304.09;4237171;27;20039;-71